createdAt,value
2023-01-19T00:01:49.921Z,100001.47
2023-01-19T00:06:52.007Z,99988.16
2023-01-19T00:11:52.863Z,99991.84
2023-01-19T00:16:54.181Z,100016.19
2023-01-19T00:21:56.361Z,100002.09
2023-01-19T00:26:59.222Z,100038.13
2023-01-19T00:31:59.684Z,100025.66
2023-01-19T00:37:03.161Z,100023.28
2023-01-19T00:42:26.946Z,100019.19
2023-01-19T00:47:27.210Z,100010.72
2023-01-19T00:52:27.772Z,100021.38
2023-01-19T00:57:29.679Z,100015.28
2023-01-19T01:02:31.770Z,100004.63
2023-01-19T01:07:43.789Z,100031.47
2023-01-19T01:12:55.555Z,99984.38
2023-01-19T01:18:04.263Z,100025.00
2023-01-19T01:23:05.645Z,99992.53
2023-01-19T01:28:09.323Z,100016.88
2023-01-19T01:33:08.434Z,100002.53
2023-01-19T01:38:11.280Z,99991.75
2023-01-19T01:43:19.545Z,99999.31
2023-01-19T01:48:23.946Z,100013.88
2023-01-19T01:53:34.113Z,100029.22
2023-01-19T01:58:37.134Z,100007.19
2023-01-19T02:03:35.843Z,99977.84
2023-01-19T02:09:18.797Z,99992.34
2023-01-19T02:14:16.743Z,99960.25
2023-01-19T02:19:24.765Z,99996.25
2023-01-19T02:24:26.592Z,99957.13
2023-01-19T02:29:28.593Z,99992.44
2023-01-19T02:34:34.395Z,99989.44
2023-01-19T02:39:37.718Z,99967.47
2023-01-19T02:44:35.848Z,99995.72
2023-01-19T02:49:34.940Z,100007.72
2023-01-19T02:55:13.256Z,100014.91
2023-01-19T03:00:48.818Z,100033.88
2023-01-19T03:05:57.520Z,99996.25
2023-01-19T03:11:12.668Z,100020.88
2023-01-19T03:16:23.389Z,100045.25
2023-01-19T03:21:28.453Z,100026.94
2023-01-19T03:26:30.563Z,100020.13
2023-01-19T03:31:30.931Z,100028.06
2023-01-19T03:36:34.826Z,100012.81
2023-01-19T03:41:34.605Z,100030.78
2023-01-19T03:46:36.450Z,100021.16
2023-01-19T03:51:39.973Z,100038.06
2023-01-19T03:56:39.719Z,100035.28
2023-01-19T04:01:41.722Z,100041.81
2023-01-19T04:06:50.858Z,100029.38
2023-01-19T04:11:53.303Z,100056.16
2023-01-19T04:16:51.542Z,100076.28
2023-01-19T04:21:52.792Z,100050.72
2023-01-19T04:26:53.919Z,100062.66
2023-01-19T04:31:54.849Z,100067.13
2023-01-19T04:37:38.991Z,100092.78
2023-01-19T04:42:38.639Z,100080.47
2023-01-19T04:47:40.810Z,100062.19
2023-01-19T04:52:44.688Z,100063.75
2023-01-19T04:57:45.954Z,100092.81
2023-01-19T05:02:48.355Z,100082.34
2023-01-19T05:07:48.576Z,100077.16
2023-01-19T05:12:48.227Z,100112.84
2023-01-19T05:17:51.045Z,100094.88
2023-01-19T05:23:03.077Z,100099.41
2023-01-19T05:28:07.899Z,100101.28
2023-01-19T05:33:19.412Z,100091.41
2023-01-19T05:38:23.366Z,100098.69
2023-01-19T05:43:35.323Z,100130.16
2023-01-19T05:48:36.959Z,100119.69
2023-01-19T05:53:35.601Z,100156.63
2023-01-19T05:58:40.176Z,100159.69
2023-01-19T06:03:41.603Z,100166.16
2023-01-19T06:08:41.685Z,100154.44
2023-01-19T06:13:42.279Z,100131.03
2023-01-19T06:18:42.179Z,100161.88
2023-01-19T06:23:45.417Z,100173.41
2023-01-19T06:28:46.717Z,100173.00
2023-01-19T06:33:50.418Z,100193.84
2023-01-19T06:38:49.786Z,100197.44
2023-01-19T06:43:50.487Z,100194.81
2023-01-19T06:48:49.451Z,100206.13
2023-01-19T06:53:51.135Z,100194.59
2023-01-19T06:58:55.451Z,100148.56
2023-01-19T07:03:57.232Z,100177.19
2023-01-19T07:08:58.193Z,100181.38
2023-01-19T07:14:06.282Z,100159.16
2023-01-19T07:19:05.753Z,100180.72
2023-01-19T07:24:24.067Z,100180.72
2023-01-19T07:29:25.536Z,100202.91
2023-01-19T07:34:28.390Z,100204.63
2023-01-19T07:39:26.629Z,100197.97
2023-01-19T07:44:25.641Z,100179.56
2023-01-19T07:49:27.201Z,100203.97
2023-01-19T07:54:26.505Z,100198.13
2023-01-19T07:59:27.863Z,100183.53
2023-01-19T08:04:28.044Z,100184.16
2023-01-19T08:09:29.331Z,100191.28
2023-01-19T08:14:27.498Z,100166.41
2023-01-19T08:19:26.670Z,100183.66
2023-01-19T08:24:28.728Z,100174.19
2023-01-19T08:29:35.549Z,100174.44
2023-01-19T08:34:39.289Z,100164.47
2023-01-19T08:39:40.964Z,100172.91
2023-01-19T08:44:57.399Z,100172.38
2023-01-19T08:50:06.774Z,100188.69
2023-01-19T08:55:06.247Z,100150.56
2023-01-19T09:00:08.130Z,100164.19
2023-01-19T09:05:10.527Z,100182.00
2023-01-19T09:10:17.708Z,100167.91
2023-01-19T09:15:25.759Z,100174.91
2023-01-19T09:20:24.462Z,100158.88
2023-01-19T09:25:27.531Z,100171.97
2023-01-19T09:30:27.947Z,100169.53
2023-01-19T09:35:28.367Z,100197.56
2023-01-19T09:40:27.871Z,100173.47
2023-01-19T09:45:47.674Z,100186.78
2023-01-19T09:50:48.588Z,100138.03
2023-01-19T09:55:51.384Z,100131.94
2023-01-19T10:01:03.817Z,100125.06
2023-01-19T10:06:05.525Z,100131.41
2023-01-19T10:11:06.676Z,100139.56
2023-01-19T10:16:24.474Z,100143.84
2023-01-19T10:21:30.240Z,100105.91
2023-01-19T10:26:39.458Z,100148.88
2023-01-19T10:31:39.108Z,100102.44
2023-01-19T10:36:40.559Z,100114.50
2023-01-19T10:41:53.328Z,100081.91
2023-01-19T10:46:54.504Z,100085.28
2023-01-19T10:51:55.304Z,100125.09
2023-01-19T10:57:05.341Z,100085.72
2023-01-19T11:02:14.041Z,100080.69
2023-01-19T11:07:20.047Z,100103.50
2023-01-19T11:12:23.869Z,100092.69
2023-01-19T11:17:31.003Z,100097.44
2023-01-19T11:22:34.280Z,100070.88
2023-01-19T11:27:35.376Z,100058.13
2023-01-19T11:32:37.254Z,100084.50
2023-01-19T11:37:37.595Z,100074.00
2023-01-19T11:42:37.360Z,100053.56
2023-01-19T11:47:44.440Z,100093.22
2023-01-19T11:52:48.656Z,100094.03
2023-01-19T11:57:52.820Z,100065.34
2023-01-19T12:03:05.911Z,100066.84
2023-01-19T12:08:08.155Z,100088.28
2023-01-19T12:13:15.515Z,100065.97
2023-01-19T12:18:30.274Z,100077.53
2023-01-19T12:23:57.460Z,100104.81
2023-01-19T12:29:01.570Z,100062.16
2023-01-19T12:34:25.468Z,100110.53
2023-01-19T12:39:26.681Z,100089.31
2023-01-19T12:44:30.627Z,100079.22
2023-01-19T12:49:43.994Z,100078.22
2023-01-19T12:54:54.774Z,100074.19
2023-01-19T13:00:02.061Z,100061.94
2023-01-19T13:05:17.528Z,100102.97
2023-01-19T13:10:55.550Z,100091.09
2023-01-19T13:15:57.774Z,100067.94
2023-01-19T13:21:10.164Z,100058.69
2023-01-19T13:26:17.991Z,100093.56
2023-01-19T13:31:21.385Z,100083.50
2023-01-19T13:36:26.377Z,100070.38
2023-01-19T13:41:43.808Z,100082.78
2023-01-19T13:46:43.103Z,100095.63
2023-01-19T13:51:43.048Z,100085.78
2023-01-19T13:56:51.569Z,100072.72
2023-01-19T14:01:51.606Z,100089.63
2023-01-19T14:06:55.745Z,100069.56
2023-01-19T14:12:07.055Z,100103.56
2023-01-19T14:17:29.350Z,100095.56
2023-01-19T14:22:44.229Z,100093.06
2023-01-19T14:27:42.085Z,100074.16
2023-01-19T14:33:07.108Z,100088.63
2023-01-19T14:38:11.460Z,100079.56
2023-01-19T14:43:12.488Z,100076.41
2023-01-19T14:48:31.791Z,100051.75
2023-01-19T14:53:43.893Z,100090.28
2023-01-19T14:58:46.867Z,100093.66
2023-01-19T15:03:48.276Z,100061.63
2023-01-19T15:09:14.120Z,100066.66
2023-01-19T15:14:18.368Z,100068.75
2023-01-19T15:19:21.063Z,100094.53
2023-01-19T15:24:21.935Z,100068.72
2023-01-19T15:29:25.434Z,100072.06
2023-01-19T15:34:24.795Z,100095.44
2023-01-19T15:39:32.539Z,100086.25
2023-01-19T15:44:32.913Z,100094.28
2023-01-19T15:49:34.068Z,100089.66
2023-01-19T15:54:34.291Z,100095.94
2023-01-19T15:59:34.358Z,100072.25
2023-01-19T16:04:35.039Z,100074.44
2023-01-19T16:09:35.531Z,100071.59
2023-01-19T16:14:34.710Z,100098.63
2023-01-19T16:19:32.710Z,100093.34
2023-01-19T16:24:34.459Z,100090.78
2023-01-19T16:29:34.302Z,100090.91
2023-01-19T16:34:34.372Z,100107.16
2023-01-19T16:39:34.109Z,100102.75
2023-01-19T16:44:34.631Z,100120.41
2023-01-19T16:49:38.086Z,100111.72
2023-01-19T16:54:39.246Z,100135.88
2023-01-19T16:59:40.082Z,100128.25
2023-01-19T17:04:37.818Z,100132.38
2023-01-19T17:10:07.180Z,100148.22
2023-01-19T17:15:06.594Z,100127.47
2023-01-19T17:20:06.244Z,100132.34
2023-01-19T17:25:05.249Z,100128.66
2023-01-19T17:30:04.661Z,100153.47
2023-01-19T17:35:04.075Z,100142.00
2023-01-19T17:40:09.066Z,100149.72
2023-01-19T17:45:08.929Z,100135.50
2023-01-19T17:50:56.252Z,100152.63
2023-01-19T17:56:22.449Z,100154.53
2023-01-19T18:01:28.952Z,100157.16
2023-01-19T18:06:35.664Z,100169.72
2023-01-19T18:11:42.794Z,100179.97
2023-01-19T18:16:43.317Z,100164.31
2023-01-19T18:21:48.557Z,100152.03
2023-01-19T18:26:50.829Z,100148.28
2023-01-19T18:31:52.015Z,100180.09
2023-01-19T18:42:58.038Z,100177.38
2023-01-19T18:48:15.478Z,100160.28
2023-01-19T18:53:35.010Z,100168.09
2023-01-19T18:58:52.906Z,100159.91
2023-01-19T19:03:54.942Z,100181.56
2023-01-19T19:09:00.908Z,100181.69
2023-01-19T19:14:11.398Z,100208.00
2023-01-19T19:19:16.674Z,100188.47
2023-01-19T19:24:16.809Z,100231.69
2023-01-19T19:29:44.274Z,100234.47
2023-01-19T19:34:56.817Z,100267.13
2023-01-19T19:39:57.978Z,100285.31
2023-01-19T19:45:00.393Z,100317.03
2023-01-19T19:50:05.968Z,100303.31
2023-01-19T19:55:15.311Z,100333.03
2023-01-19T20:00:16.614Z,100318.88
2023-01-19T20:05:30.849Z,100339.88
2023-01-19T20:10:40.599Z,100328.38
2023-01-19T20:15:49.566Z,100319.59
2023-01-19T20:20:50.668Z,100337.91
2023-01-19T20:25:53.536Z,100340.81
2023-01-19T20:30:55.465Z,100341.03
2023-01-19T20:35:57.688Z,100371.56
2023-01-19T20:41:01.776Z,100370.34
2023-01-19T20:46:01.718Z,100387.13
2023-01-19T20:51:21.024Z,100377.19
2023-01-19T20:56:20.967Z,100381.59
2023-01-19T21:01:25.231Z,100377.22
2023-01-19T21:06:26.647Z,100383.34
2023-01-19T21:11:31.567Z,100362.91
2023-01-19T21:16:39.778Z,100371.56
2023-01-19T21:21:39.073Z,100367.06
2023-01-19T21:26:57.850Z,100327.88
2023-01-19T21:32:01.709Z,100381.56
2023-01-19T21:37:03.565Z,100367.16
2023-01-19T21:42:03.190Z,100361.25
2023-01-19T21:47:18.145Z,100330.53
2023-01-19T21:52:23.632Z,100345.97
2023-01-19T21:57:36.423Z,100342.47
2023-01-19T22:02:39.931Z,100338.97
2023-01-19T22:07:41.785Z,100341.22
2023-01-19T22:12:45.046Z,100351.50
2023-01-19T22:17:54.275Z,100335.94
2023-01-19T22:23:17.326Z,100330.38
2023-01-19T22:28:21.084Z,100336.38
2023-01-19T22:33:31.734Z,100339.91
2023-01-19T22:38:53.442Z,100310.25
2023-01-19T22:43:56.918Z,100321.72
2023-01-19T22:48:59.597Z,100319.72
2023-01-19T22:54:01.439Z,100326.56
2023-01-19T22:59:00.950Z,100302.25
2023-01-19T23:04:04.987Z,100308.56
2023-01-19T23:09:07.700Z,100316.75
2023-01-19T23:14:13.519Z,100296.72
2023-01-19T23:19:19.043Z,100295.09
2023-01-19T23:24:24.697Z,100298.84
2023-01-19T23:29:29.493Z,100303.03
2023-01-19T23:34:30.562Z,100286.84
2023-01-19T23:39:29.457Z,100267.69
2023-01-19T23:44:29.660Z,100300.75
2023-01-19T23:49:29.035Z,100270.72
2023-01-19T23:54:31.898Z,100253.38
2023-01-19T23:59:33.208Z,100249.38
